createdAt,value
2019-02-23T00:01:48.040Z,99.90
2019-02-23T00:04:51.885Z,99.90
2019-02-23T00:07:55.742Z,99.90
2019-02-23T00:10:59.574Z,99.90
2019-02-23T00:14:03.446Z,99.90
2019-02-23T00:17:07.425Z,99.90
2019-02-23T00:20:11.337Z,99.90
2019-02-23T00:23:15.185Z,99.90
2019-02-23T00:26:19.081Z,99.90
2019-02-23T00:29:22.931Z,99.90
2019-02-23T00:32:26.798Z,99.90
2019-02-23T00:35:30.639Z,99.90
2019-02-23T00:38:34.579Z,99.90
2019-02-23T00:41:38.494Z,99.90
2019-02-23T00:44:42.329Z,99.90
2019-02-23T00:47:46.214Z,99.90
2019-02-23T00:50:50.056Z,99.90
2019-02-23T00:53:53.961Z,99.90
2019-02-23T00:57:04.457Z,99.90
2019-02-23T01:00:41.148Z,99.90
2019-02-23T01:03:45.204Z,99.90
2019-02-23T01:06:49.061Z,99.90
2019-02-23T01:09:52.934Z,99.90
2019-02-23T01:12:56.825Z,99.90
2019-02-23T01:16:00.642Z,99.90
2019-02-23T01:19:04.509Z,99.90
2019-02-23T01:22:08.355Z,99.90
2019-02-23T01:25:12.255Z,99.90
2019-02-23T01:28:16.092Z,99.90
2019-02-23T01:31:19.922Z,99.90
2019-02-23T01:34:23.760Z,99.90
2019-02-23T01:37:27.636Z,99.90
2019-02-23T01:40:31.523Z,99.90
2019-02-23T01:43:35.380Z,99.90
2019-02-23T01:46:39.229Z,99.50
2019-02-23T01:49:43.216Z,99.90
2019-02-23T01:52:47.050Z,99.90
2019-02-23T01:55:50.895Z,99.90
2019-02-23T01:58:54.755Z,99.90
2019-02-23T02:01:58.582Z,99.90
2019-02-23T02:05:02.459Z,99.90
2019-02-23T02:08:06.272Z,99.90
2019-02-23T02:11:10.139Z,99.90
2019-02-23T02:14:14.102Z,99.90
2019-02-23T02:17:17.952Z,99.90
2019-02-23T02:20:21.790Z,99.90
2019-02-23T02:23:25.626Z,99.90
2019-02-23T02:26:29.499Z,99.90
2019-02-23T02:29:33.304Z,99.90
2019-02-23T02:32:37.179Z,99.90
2019-02-23T02:35:41.075Z,99.90
2019-02-23T02:38:44.912Z,99.90
2019-02-23T02:41:48.770Z,99.90
2019-02-23T02:44:52.623Z,99.90
2019-02-23T02:47:56.490Z,99.90
2019-02-23T02:51:00.339Z,99.90
2019-02-23T02:54:04.296Z,99.90
2019-02-23T02:57:08.190Z,99.90
2019-02-23T03:00:13.127Z,99.90
2019-02-23T03:03:17.031Z,99.90
2019-02-23T03:06:20.856Z,99.90
2019-02-23T03:09:24.745Z,99.90
2019-02-23T03:12:28.637Z,99.90
2019-02-23T03:15:32.474Z,99.90
2019-02-23T03:18:36.308Z,99.90
2019-02-23T03:21:40.175Z,99.90
2019-02-23T03:24:44.050Z,99.90
2019-02-23T03:27:47.895Z,99.90
2019-02-23T03:30:51.762Z,99.90
2019-02-23T03:33:55.635Z,99.90
2019-02-23T03:36:59.535Z,99.90
2019-02-23T03:40:03.411Z,99.90
2019-02-23T03:43:07.227Z,99.90
2019-02-23T03:46:11.091Z,99.90
2019-02-23T03:49:14.967Z,99.90
2019-02-23T03:52:18.810Z,99.90
2019-02-23T03:55:22.659Z,99.90
2019-02-23T03:58:26.526Z,99.90
2019-02-23T04:01:30.332Z,99.90
2019-02-23T04:04:34.190Z,99.90
2019-02-23T04:07:38.082Z,99.90
2019-02-23T04:10:42.032Z,99.90
2019-02-23T04:13:45.882Z,99.90
2019-02-23T04:16:49.710Z,99.90
2019-02-23T04:19:53.576Z,99.90
2019-02-23T04:22:57.408Z,99.90
2019-02-23T04:26:01.256Z,99.90
2019-02-23T04:29:05.135Z,99.90
2019-02-23T04:32:09.049Z,99.90
2019-02-23T04:35:12.914Z,99.90
2019-02-23T04:38:16.748Z,99.90
2019-02-23T04:41:20.630Z,99.90
2019-02-23T04:44:24.498Z,99.90
2019-02-23T04:47:28.355Z,99.90
2019-02-23T04:50:32.229Z,99.90
2019-02-23T04:53:36.043Z,99.90
2019-02-23T04:56:39.917Z,99.90
2019-02-23T04:59:43.840Z,99.90
2019-02-23T05:02:47.678Z,99.90
2019-02-23T05:05:51.608Z,99.90
2019-02-23T05:08:55.444Z,99.90
2019-02-23T05:11:59.332Z,99.90
2019-02-23T05:15:03.183Z,99.90
2019-02-23T05:18:07.069Z,99.90
2019-02-23T05:21:10.896Z,99.90
2019-02-23T05:24:14.764Z,99.90
2019-02-23T05:27:18.623Z,99.90
2019-02-23T05:30:22.499Z,99.90
2019-02-23T05:33:26.370Z,99.90
2019-02-23T05:36:30.207Z,99.90
2019-02-23T05:39:34.071Z,99.90
2019-02-23T05:42:37.965Z,99.90
2019-02-23T05:45:41.835Z,99.90
2019-02-23T05:48:45.690Z,99.90
2019-02-23T05:51:49.531Z,99.90
2019-02-23T05:54:53.350Z,99.90
2019-02-23T05:57:57.223Z,99.90
2019-02-23T06:01:01.125Z,99.90
2019-02-23T06:04:04.970Z,99.90
2019-02-23T06:07:08.857Z,99.90
2019-02-23T06:10:12.709Z,99.90
2019-02-23T06:13:16.596Z,99.90
2019-02-23T06:16:20.446Z,99.90
2019-02-23T06:19:24.292Z,99.90
2019-02-23T06:22:28.109Z,99.90
2019-02-23T06:25:31.989Z,99.90
2019-02-23T06:28:35.882Z,99.90
2019-02-23T06:31:39.717Z,99.40
2019-02-23T06:34:43.581Z,95.40
2019-02-23T06:37:47.437Z,93.50
2019-02-23T06:40:51.341Z,91.90
2019-02-23T06:43:55.206Z,90.60
2019-02-23T06:46:59.054Z,82.50
2019-02-23T06:50:03.000Z,81.00
2019-02-23T06:53:06.880Z,82.50
2019-02-23T06:56:10.744Z,81.20
2019-02-23T06:59:14.597Z,78.00
2019-02-23T07:02:18.480Z,75.30
2019-02-23T07:05:36.263Z,67.30
2019-02-23T07:08:40.090Z,67.70
2019-02-23T07:11:43.940Z,62.00
2019-02-23T07:14:47.790Z,62.80
2019-02-23T07:17:51.611Z,58.50
2019-02-23T07:20:55.463Z,59.60
2019-02-23T07:23:59.357Z,61.70
2019-02-23T07:27:03.200Z,59.50
2019-02-23T07:30:09.982Z,57.70
2019-02-23T07:33:13.829Z,51.30
2019-02-23T07:36:17.690Z,51.70
2019-02-23T07:39:21.525Z,50.80
2019-02-23T07:42:25.418Z,53.50
2019-02-23T07:45:29.366Z,53.70
2019-02-23T07:48:33.192Z,52.50
2019-02-23T07:51:37.052Z,54.90
2019-02-23T07:54:40.900Z,57.40
2019-02-23T07:57:44.790Z,57.00
2019-02-23T08:00:48.616Z,58.10
2019-02-23T08:03:52.497Z,60.50
2019-02-23T08:06:56.387Z,64.60
2019-02-23T08:10:00.329Z,67.10
2019-02-23T08:13:04.235Z,65.00
2019-02-23T08:16:08.071Z,67.30
2019-02-23T08:19:11.918Z,67.90
2019-02-23T08:22:15.759Z,70.80
2019-02-23T08:25:19.604Z,70.30
2019-02-23T08:28:23.550Z,77.70
2019-02-23T08:31:27.410Z,78.30
2019-02-23T08:34:31.272Z,80.70
2019-02-23T08:37:35.163Z,76.90
2019-02-23T08:40:39.016Z,77.90
2019-02-23T08:43:42.884Z,82.60
2019-02-23T08:46:47.074Z,80.90
2019-02-23T08:49:51.192Z,80.40
2019-02-23T08:52:55.157Z,80.30
2019-02-23T08:55:59.023Z,80.60
2019-02-23T08:59:02.947Z,80.90
2019-02-23T09:02:06.857Z,81.00
2019-02-23T09:05:11.896Z,80.00
2019-02-23T09:08:15.791Z,78.80
2019-02-23T09:11:19.669Z,80.90
2019-02-23T09:14:23.601Z,81.80
2019-02-23T09:17:27.480Z,82.00
2019-02-23T09:20:31.362Z,81.80
2019-02-23T09:23:35.200Z,80.80
2019-02-23T09:26:39.051Z,80.30
2019-02-23T09:29:42.941Z,80.60
2019-02-23T09:32:46.800Z,81.50
2019-02-23T09:35:50.655Z,79.00
2019-02-23T09:38:54.470Z,82.00
2019-02-23T09:42:07.253Z,80.50
2019-02-23T09:45:03.879Z,76.60
2019-02-23T09:48:07.810Z,72.80
2019-02-23T09:51:11.650Z,73.20
2019-02-23T09:54:15.530Z,76.40
2019-02-23T09:57:19.400Z,74.80
2019-02-23T10:00:23.221Z,71.90
2019-02-23T10:03:27.095Z,69.40
2019-02-23T10:06:30.965Z,66.80
2019-02-23T10:09:34.838Z,71.00
2019-02-23T10:12:38.612Z,59.60
2019-02-23T10:15:42.471Z,58.60
2019-02-23T10:18:46.312Z,59.90
2019-02-23T10:21:50.196Z,57.40
2019-02-23T10:24:54.097Z,58.10
2019-02-23T10:27:59.310Z,60.80
2019-02-23T10:31:03.330Z,53.90
2019-02-23T10:34:07.139Z,52.50
2019-02-23T10:37:11.014Z,52.10
2019-02-23T10:40:14.856Z,52.90
2019-02-23T10:43:18.709Z,50.80
2019-02-23T10:46:22.546Z,49.20
2019-02-23T10:49:26.411Z,49.90
2019-02-23T10:52:30.321Z,52.40
2019-02-23T10:55:34.188Z,55.00
2019-02-23T10:58:38.031Z,55.60
2019-02-23T11:01:41.987Z,57.50
2019-02-23T11:04:45.856Z,58.20
2019-02-23T11:07:49.712Z,61.90
2019-02-23T11:10:53.553Z,66.20
2019-02-23T11:13:57.390Z,64.00
2019-02-23T11:17:01.286Z,60.80
2019-02-23T11:20:06.846Z,62.60
2019-02-23T11:23:10.734Z,64.20
2019-02-23T11:26:14.602Z,61.40
2019-02-23T11:29:18.444Z,62.60
2019-02-23T11:32:22.329Z,64.20
2019-02-23T11:35:26.160Z,62.10
2019-02-23T11:38:30.040Z,65.10
2019-02-23T11:41:33.880Z,60.40
2019-02-23T11:44:37.751Z,61.80
2019-02-23T11:47:41.742Z,62.50
2019-02-23T11:50:45.575Z,61.60
2019-02-23T11:53:54.835Z,57.80
2019-02-23T11:56:54.946Z,63.00
2019-02-23T11:59:58.808Z,62.20
2019-02-23T12:03:02.646Z,66.30
2019-02-23T12:06:06.515Z,65.30
2019-02-23T12:09:10.392Z,65.60
2019-02-23T12:12:14.274Z,68.80
2019-02-23T12:15:18.129Z,62.60
2019-02-23T12:18:22.917Z,67.60
2019-02-23T12:21:26.784Z,66.20
2019-02-23T12:24:30.638Z,66.00
2019-02-23T12:27:34.506Z,66.70
2019-02-23T12:30:38.376Z,63.20
2019-02-23T12:33:42.235Z,67.50
2019-02-23T12:36:46.136Z,61.70
2019-02-23T12:39:49.976Z,64.20
2019-02-23T12:42:53.837Z,61.10
2019-02-23T12:45:57.671Z,60.50
2019-02-23T12:49:01.520Z,60.30
2019-02-23T12:52:05.366Z,60.40
2019-02-23T12:55:10.931Z,62.70
2019-02-23T12:58:14.786Z,58.40
2019-02-23T13:01:18.637Z,61.20
2019-02-23T13:04:22.530Z,62.00
2019-02-23T13:07:26.357Z,64.00
2019-02-23T13:10:30.240Z,63.10
2019-02-23T13:13:42.625Z,63.00
2019-02-23T13:16:47.677Z,63.50
2019-02-23T13:20:09.071Z,63.10
2019-02-23T13:23:27.767Z,63.70
2019-02-23T13:26:56.892Z,60.60
2019-02-23T13:30:15.654Z,60.80
2019-02-23T13:33:25.241Z,61.10
2019-02-23T13:36:40.335Z,61.30
2019-02-23T13:39:58.928Z,62.10
2019-02-23T13:43:11.513Z,63.70
2019-02-23T13:46:43.912Z,64.50
2019-02-23T13:50:13.336Z,67.90
2019-02-23T13:53:47.253Z,63.60
2019-02-23T13:57:09.085Z,64.30
2019-02-23T14:00:35.190Z,59.00
2019-02-23T14:03:41.966Z,60.00
2019-02-23T14:07:00.649Z,61.10
2019-02-23T14:10:22.376Z,59.80
2019-02-23T14:13:34.871Z,60.70
2019-02-23T14:17:13.685Z,61.20
2019-02-23T14:20:43.045Z,60.60
2019-02-23T14:24:01.780Z,62.20
2019-02-23T14:27:23.616Z,64.20
2019-02-23T14:30:42.597Z,65.40
2019-02-23T14:34:04.629Z,66.40
2019-02-23T14:37:17.216Z,64.70
2019-02-23T14:40:29.907Z,64.50
2019-02-23T14:43:57.759Z,64.30
2019-02-23T14:47:20.846Z,66.40
2019-02-23T14:50:45.680Z,67.00
2019-02-23T14:54:07.624Z,66.00
2019-02-23T14:57:30.096Z,67.40
2019-02-23T15:01:10.630Z,66.80
2019-02-23T15:04:17.741Z,68.20
2019-02-23T15:07:24.554Z,70.80
2019-02-23T15:11:06.297Z,71.90
2019-02-23T15:14:22.177Z,70.90
2019-02-23T15:17:46.890Z,71.90
2019-02-23T15:20:56.429Z,72.30
2019-02-23T15:24:18.420Z,72.90
2019-02-23T15:27:25.483Z,70.80
2019-02-23T15:30:44.384Z,71.50
2019-02-23T15:34:12.129Z,70.90
2019-02-23T15:37:21.618Z,72.00
2019-02-23T15:40:28.472Z,72.80
2019-02-23T15:43:38.028Z,72.80
2019-02-23T15:47:17.014Z,73.40
2019-02-23T15:50:21.315Z,74.80
2019-02-23T15:53:25.191Z,75.70
2019-02-23T15:56:29.060Z,76.10
2019-02-23T15:59:33.040Z,78.90
2019-02-23T16:02:36.893Z,75.10
2019-02-23T16:05:42.237Z,79.30
2019-02-23T16:08:46.140Z,76.90
2019-02-23T16:11:50.047Z,80.80
2019-02-23T16:14:53.940Z,84.20
2019-02-23T16:17:57.795Z,79.50
2019-02-23T16:21:01.664Z,78.70
2019-02-23T16:24:05.521Z,79.20
2019-02-23T16:27:09.502Z,79.40
2019-02-23T16:30:13.631Z,80.00
2019-02-23T16:33:17.568Z,80.80
2019-02-23T16:36:21.450Z,81.10
2019-02-23T16:39:25.445Z,81.00
2019-02-23T16:42:30.590Z,82.50
2019-02-23T16:45:34.545Z,83.70
2019-02-23T16:48:38.507Z,84.30
2019-02-23T16:51:42.460Z,86.00
2019-02-23T16:54:46.296Z,90.00
2019-02-23T16:57:50.215Z,88.50
2019-02-23T17:00:54.130Z,89.40
2019-02-23T17:03:58.052Z,90.00
2019-02-23T17:07:01.972Z,90.40
2019-02-23T17:10:07.147Z,89.50
2019-02-23T17:13:11.001Z,88.80
2019-02-23T17:16:14.868Z,88.80
2019-02-23T17:19:18.718Z,89.00
2019-02-23T17:22:22.655Z,88.30
2019-02-23T17:25:26.628Z,88.00
2019-02-23T17:28:30.444Z,88.10
2019-02-23T17:31:34.291Z,87.30
2019-02-23T17:34:38.120Z,88.00
2019-02-23T17:37:42.009Z,86.90
2019-02-23T17:40:45.894Z,86.80
2019-02-23T17:43:49.808Z,87.30
2019-02-23T17:46:53.733Z,89.50
2019-02-23T17:49:57.566Z,88.60
2019-02-23T17:53:01.435Z,90.60
2019-02-23T17:56:12.100Z,90.40
2019-02-23T17:59:10.804Z,91.30
2019-02-23T18:02:14.734Z,89.60
2019-02-23T18:05:18.540Z,90.80
2019-02-23T18:08:22.392Z,91.30
2019-02-23T18:11:27.556Z,92.60
2019-02-23T18:14:32.907Z,93.70
2019-02-23T18:17:36.883Z,92.80
2019-02-23T18:20:40.754Z,93.00
2019-02-23T18:23:44.701Z,93.60
2019-02-23T18:26:50.020Z,92.40
2019-02-23T18:29:53.864Z,92.20
2019-02-23T18:32:57.831Z,92.40
2019-02-23T18:36:01.689Z,93.30
2019-02-23T18:39:05.829Z,92.30
2019-02-23T18:42:09.755Z,91.90
2019-02-23T18:45:13.609Z,91.50
2019-02-23T18:48:17.458Z,91.40
2019-02-23T18:51:21.374Z,91.00
2019-02-23T18:54:25.190Z,91.00
2019-02-23T18:57:29.074Z,91.00
2019-02-23T19:00:32.987Z,91.10
2019-02-23T19:03:36.834Z,91.20
2019-02-23T19:06:40.800Z,91.50
2019-02-23T19:09:44.718Z,91.10
2019-02-23T19:12:48.563Z,91.40
2019-02-23T19:15:52.465Z,92.40
2019-02-23T19:18:56.483Z,92.30
2019-02-23T19:22:00.426Z,93.90
2019-02-23T19:25:04.792Z,94.00
2019-02-23T19:28:08.620Z,94.30
2019-02-23T19:31:12.581Z,93.10
2019-02-23T19:34:16.433Z,94.80
2019-02-23T19:37:20.303Z,94.90
2019-02-23T19:40:24.134Z,95.90
2019-02-23T19:43:28.010Z,96.20
2019-02-23T19:46:31.891Z,94.20
2019-02-23T19:49:35.755Z,93.70
2019-02-23T19:52:39.668Z,95.00
2019-02-23T19:55:43.541Z,95.70
2019-02-23T19:58:47.431Z,96.20
2019-02-23T20:01:51.296Z,96.70
2019-02-23T20:04:55.366Z,96.30
2019-02-23T20:07:59.263Z,96.40
2019-02-23T20:11:03.165Z,97.00
2019-02-23T20:14:07.155Z,97.80
2019-02-23T20:17:10.975Z,97.90
2019-02-23T20:20:14.961Z,98.40
2019-02-23T20:23:18.791Z,99.00
2019-02-23T20:26:22.690Z,99.70
2019-02-23T20:29:26.526Z,99.20
2019-02-23T20:32:30.871Z,99.40
2019-02-23T20:35:34.811Z,99.60
2019-02-23T20:38:39.570Z,99.30
2019-02-23T20:41:43.622Z,99.90
2019-02-23T20:44:47.472Z,99.90
2019-02-23T20:47:51.408Z,99.90
2019-02-23T20:50:55.355Z,99.90
2019-02-23T20:53:59.263Z,99.90
2019-02-23T20:57:05.211Z,99.90
2019-02-23T21:00:10.699Z,99.90
2019-02-23T21:03:14.731Z,99.90
2019-02-23T21:06:18.539Z,99.90
2019-02-23T21:09:22.514Z,99.90
2019-02-23T21:12:26.384Z,99.90
2019-02-23T21:15:30.344Z,99.90
2019-02-23T21:18:34.211Z,99.90
2019-02-23T21:21:38.116Z,99.90
2019-02-23T21:24:41.974Z,99.90
2019-02-23T21:27:45.877Z,99.90
2019-02-23T21:30:49.854Z,99.90
2019-02-23T21:33:53.659Z,99.90
2019-02-23T21:36:57.649Z,99.90
2019-02-23T21:40:01.506Z,99.90
2019-02-23T21:43:05.375Z,99.90
2019-02-23T21:46:09.202Z,99.90
2019-02-23T21:49:13.085Z,99.70
2019-02-23T21:52:17.002Z,98.60
2019-02-23T21:55:20.857Z,98.80
2019-02-23T21:58:26.536Z,99.30
2019-02-23T22:01:30.238Z,99.70
2019-02-23T22:04:34.151Z,99.60
2019-02-23T22:07:38.037Z,99.90
2019-02-23T22:10:41.892Z,99.50
2019-02-23T22:13:45.749Z,99.90
2019-02-23T22:16:49.636Z,99.90
2019-02-23T22:19:53.528Z,99.90
2019-02-23T22:22:57.385Z,99.90
2019-02-23T22:26:01.270Z,99.90
2019-02-23T22:29:05.095Z,99.90
2019-02-23T22:32:09.000Z,99.90
2019-02-23T22:35:13.131Z,99.90
2019-02-23T22:38:17.050Z,99.90
2019-02-23T22:41:20.912Z,99.90
2019-02-23T22:44:24.755Z,99.90
2019-02-23T22:47:28.682Z,99.90
2019-02-23T22:50:32.533Z,99.90
2019-02-23T22:53:36.412Z,99.90
2019-02-23T22:56:40.230Z,99.90
2019-02-23T22:59:44.111Z,99.90
2019-02-23T23:02:47.949Z,99.90
2019-02-23T23:05:51.819Z,99.90
2019-02-23T23:08:55.668Z,99.90
2019-02-23T23:11:59.528Z,99.90
2019-02-23T23:15:03.390Z,99.90
2019-02-23T23:18:07.252Z,99.90
2019-02-23T23:21:11.135Z,99.90
2019-02-23T23:24:16.299Z,99.90
2019-02-23T23:27:20.131Z,99.90
2019-02-23T23:30:23.996Z,99.90
2019-02-23T23:33:27.874Z,99.90
2019-02-23T23:36:31.716Z,99.90
2019-02-23T23:39:35.575Z,99.90
2019-02-23T23:42:39.422Z,99.90
2019-02-23T23:45:43.303Z,99.90
2019-02-23T23:48:47.162Z,99.90
2019-02-23T23:51:51.017Z,99.90
2019-02-23T23:54:54.891Z,99.90
2019-02-23T23:57:58.809Z,99.90
